sensor_id;sensor_type;location;lat;lon;timestamp;P1;durP1;ratioP1;P2;durP2;ratioP2
65558;SDS011;52203;51.998;5.140;2022-10-13T00:00:22;17.35;;;9.15;;
65558;SDS011;52203;51.998;5.140;2022-10-13T00:02:48;20.65;;;10.25;;
65558;SDS011;52203;51.998;5.140;2022-10-13T00:05:13;18.50;;;10.05;;
65558;SDS011;52203;51.998;5.140;2022-10-13T00:07:39;22.50;;;9.57;;
65558;SDS011;52203;51.998;5.140;2022-10-13T00:10:05;16.85;;;9.13;;
65558;SDS011;52203;51.998;5.140;2022-10-13T00:12:37;18.30;;;10.15;;
65558;SDS011;52203;51.998;5.140;2022-10-13T00:15:04;18.60;;;8.52;;
65558;SDS011;52203;51.998;5.140;2022-10-13T00:17:31;17.73;;;8.93;;
65558;SDS011;52203;51.998;5.140;2022-10-13T00:19:57;16.85;;;9.27;;
65558;SDS011;52203;51.998;5.140;2022-10-13T00:22:23;18.67;;;8.60;;
65558;SDS011;52203;51.998;5.140;2022-10-13T00:24:51;17.73;;;8.35;;
65558;SDS011;52203;51.998;5.140;2022-10-13T00:27:17;18.35;;;9.90;;
65558;SDS011;52203;51.998;5.140;2022-10-13T00:29:43;18.95;;;9.70;;
65558;SDS011;52203;51.998;5.140;2022-10-13T00:32:09;20.48;;;9.20;;
65558;SDS011;52203;51.998;5.140;2022-10-13T00:34:37;17.70;;;9.38;;
65558;SDS011;52203;51.998;5.140;2022-10-13T00:37:03;19.20;;;10.10;;
65558;SDS011;52203;51.998;5.140;2022-10-13T00:39:29;17.65;;;8.95;;
65558;SDS011;52203;51.998;5.140;2022-10-13T00:41:56;17.40;;;7.97;;
65558;SDS011;52203;51.998;5.140;2022-10-13T00:47:22;18.77;;;8.65;;
65558;SDS011;52203;51.998;5.140;2022-10-13T00:49:49;18.70;;;7.82;;
65558;SDS011;52203;51.998;5.140;2022-10-13T00:52:16;16.05;;;8.38;;
65558;SDS011;52203;51.998;5.140;2022-10-13T00:54:45;18.58;;;9.07;;
65558;SDS011;52203;51.998;5.140;2022-10-13T00:57:11;16.50;;;8.13;;
65558;SDS011;52203;51.998;5.140;2022-10-13T00:59:37;19.52;;;8.93;;
65558;SDS011;52203;51.998;5.140;2022-10-13T01:02:03;18.33;;;8.50;;
65558;SDS011;52203;51.998;5.140;2022-10-13T01:04:31;19.23;;;9.27;;
65558;SDS011;52203;51.998;5.140;2022-10-13T01:07:01;18.45;;;9.77;;
65558;SDS011;52203;51.998;5.140;2022-10-13T01:09:27;16.88;;;9.10;;
65558;SDS011;52203;51.998;5.140;2022-10-13T01:17:36;18.40;;;9.13;;
65558;SDS011;52203;51.998;5.140;2022-10-13T01:25:32;17.50;;;9.05;;
65558;SDS011;52203;51.998;5.140;2022-10-13T01:30:29;14.68;;;8.27;;
65558;SDS011;52203;51.998;5.140;2022-10-13T01:38:33;18.55;;;8.77;;
65558;SDS011;52203;51.998;5.140;2022-10-13T01:41:34;19.90;;;9.90;;
65558;SDS011;52203;51.998;5.140;2022-10-13T01:46:37;20.65;;;9.45;;
65558;SDS011;52203;51.998;5.140;2022-10-13T01:49:06;16.05;;;8.13;;
65558;SDS011;52203;51.998;5.140;2022-10-13T01:51:35;17.33;;;8.57;;
65558;SDS011;52203;51.998;5.140;2022-10-13T01:54:02;15.82;;;9.48;;
65558;SDS011;52203;51.998;5.140;2022-10-13T01:56:28;19.13;;;8.98;;
65558;SDS011;52203;51.998;5.140;2022-10-13T01:58:54;17.05;;;8.82;;
65558;SDS011;52203;51.998;5.140;2022-10-13T02:12:04;15.23;;;8.07;;
65558;SDS011;52203;51.998;5.140;2022-10-13T02:14:34;15.07;;;8.30;;
65558;SDS011;52203;51.998;5.140;2022-10-13T02:17:04;15.45;;;8.25;;
65558;SDS011;52203;51.998;5.140;2022-10-13T02:19:32;20.80;;;10.07;;
65558;SDS011;52203;51.998;5.140;2022-10-13T02:21:59;19.88;;;9.05;;
65558;SDS011;52203;51.998;5.140;2022-10-13T02:24:25;17.45;;;8.50;;
65558;SDS011;52203;51.998;5.140;2022-10-13T02:26:50;18.80;;;8.63;;
65558;SDS011;52203;51.998;5.140;2022-10-13T02:29:16;16.30;;;8.80;;
65558;SDS011;52203;51.998;5.140;2022-10-13T02:31:43;19.42;;;9.10;;
65558;SDS011;52203;51.998;5.140;2022-10-13T02:34:10;17.05;;;9.25;;
65558;SDS011;52203;51.998;5.140;2022-10-13T02:36:35;16.45;;;8.82;;
65558;SDS011;52203;51.998;5.140;2022-10-13T02:39:02;14.90;;;8.13;;
65558;SDS011;52203;51.998;5.140;2022-10-13T02:41:29;17.60;;;8.73;;
65558;SDS011;52203;51.998;5.140;2022-10-13T02:43:54;16.23;;;8.50;;
65558;SDS011;52203;51.998;5.140;2022-10-13T02:46:21;19.75;;;9.18;;
65558;SDS011;52203;51.998;5.140;2022-10-13T02:48:46;20.25;;;9.63;;
65558;SDS011;52203;51.998;5.140;2022-10-13T02:51:12;15.63;;;8.63;;
65558;SDS011;52203;51.998;5.140;2022-10-13T02:53:37;17.45;;;8.82;;
65558;SDS011;52203;51.998;5.140;2022-10-13T02:56:03;18.48;;;9.13;;
65558;SDS011;52203;51.998;5.140;2022-10-13T02:58:29;21.35;;;9.10;;
65558;SDS011;52203;51.998;5.140;2022-10-13T03:01:03;17.42;;;8.95;;
65558;SDS011;52203;51.998;5.140;2022-10-13T03:03:33;17.08;;;9.52;;
65558;SDS011;52203;51.998;5.140;2022-10-13T03:05:58;15.77;;;8.63;;
65558;SDS011;52203;51.998;5.140;2022-10-13T03:08:24;15.50;;;8.32;;
65558;SDS011;52203;51.998;5.140;2022-10-13T03:10:51;18.10;;;10.00;;
65558;SDS011;52203;51.998;5.140;2022-10-13T03:13:16;20.48;;;10.10;;
65558;SDS011;52203;51.998;5.140;2022-10-13T03:15:42;16.02;;;8.65;;
65558;SDS011;52203;51.998;5.140;2022-10-13T03:18:07;16.27;;;9.05;;
65558;SDS011;52203;51.998;5.140;2022-10-13T03:20:33;16.90;;;9.00;;
65558;SDS011;52203;51.998;5.140;2022-10-13T03:22:59;18.05;;;8.88;;
65558;SDS011;52203;51.998;5.140;2022-10-13T03:25:24;18.63;;;8.95;;
65558;SDS011;52203;51.998;5.140;2022-10-13T03:27:50;15.70;;;8.50;;
65558;SDS011;52203;51.998;5.140;2022-10-13T03:30:16;17.33;;;8.77;;
65558;SDS011;52203;51.998;5.140;2022-10-13T03:32:41;16.60;;;8.18;;
65558;SDS011;52203;51.998;5.140;2022-10-13T03:35:07;19.20;;;9.43;;
65558;SDS011;52203;51.998;5.140;2022-10-13T03:37:33;20.92;;;10.65;;
65558;SDS011;52203;51.998;5.140;2022-10-13T03:39:59;18.55;;;9.52;;
65558;SDS011;52203;51.998;5.140;2022-10-13T03:42:24;21.88;;;9.90;;
65558;SDS011;52203;51.998;5.140;2022-10-13T03:44:50;19.17;;;9.25;;
65558;SDS011;52203;51.998;5.140;2022-10-13T03:47:15;20.58;;;9.57;;
65558;SDS011;52203;51.998;5.140;2022-10-13T03:49:41;17.10;;;8.80;;
65558;SDS011;52203;51.998;5.140;2022-10-13T03:52:06;17.92;;;8.75;;
65558;SDS011;52203;51.998;5.140;2022-10-13T03:54:32;20.15;;;9.50;;
65558;SDS011;52203;51.998;5.140;2022-10-13T03:56:58;16.10;;;8.95;;
65558;SDS011;52203;51.998;5.140;2022-10-13T03:59:23;18.95;;;9.60;;
65558;SDS011;52203;51.998;5.140;2022-10-13T04:01:49;21.08;;;9.57;;
65558;SDS011;52203;51.998;5.140;2022-10-13T04:04:14;17.83;;;9.20;;
65558;SDS011;52203;51.998;5.140;2022-10-13T04:06:40;17.05;;;9.43;;
65558;SDS011;52203;51.998;5.140;2022-10-13T04:09:06;19.58;;;9.75;;
65558;SDS011;52203;51.998;5.140;2022-10-13T04:11:32;21.70;;;8.77;;
65558;SDS011;52203;51.998;5.140;2022-10-13T04:13:58;19.83;;;10.13;;
65558;SDS011;52203;51.998;5.140;2022-10-13T04:16:24;17.17;;;9.35;;
65558;SDS011;52203;51.998;5.140;2022-10-13T04:18:53;21.17;;;9.10;;
65558;SDS011;52203;51.998;5.140;2022-10-13T04:21:21;16.63;;;9.27;;
65558;SDS011;52203;51.998;5.140;2022-10-13T04:23:47;17.77;;;9.48;;
65558;SDS011;52203;51.998;5.140;2022-10-13T04:26:17;16.55;;;9.10;;
65558;SDS011;52203;51.998;5.140;2022-10-13T04:28:48;19.02;;;10.20;;
65558;SDS011;52203;51.998;5.140;2022-10-13T04:31:15;18.42;;;9.50;;
65558;SDS011;52203;51.998;5.140;2022-10-13T04:33:40;20.38;;;10.05;;
65558;SDS011;52203;51.998;5.140;2022-10-13T04:36:07;19.83;;;9.77;;
65558;SDS011;52203;51.998;5.140;2022-10-13T04:38:34;16.55;;;9.63;;
65558;SDS011;52203;51.998;5.140;2022-10-13T04:41:03;20.55;;;10.55;;
65558;SDS011;52203;51.998;5.140;2022-10-13T04:43:30;23.92;;;9.90;;
65558;SDS011;52203;51.998;5.140;2022-10-13T04:46:02;19.63;;;9.43;;
65558;SDS011;52203;51.998;5.140;2022-10-13T04:48:29;23.50;;;10.50;;
65558;SDS011;52203;51.998;5.140;2022-10-13T04:51:01;20.40;;;9.77;;
65558;SDS011;52203;51.998;5.140;2022-10-13T04:53:29;22.48;;;8.82;;
65558;SDS011;52203;51.998;5.140;2022-10-13T04:55:58;22.63;;;10.05;;
65558;SDS011;52203;51.998;5.140;2022-10-13T04:58:25;22.33;;;10.98;;
65558;SDS011;52203;51.998;5.140;2022-10-13T05:00:50;18.95;;;9.52;;
65558;SDS011;52203;51.998;5.140;2022-10-13T05:03:16;22.35;;;10.20;;
65558;SDS011;52203;51.998;5.140;2022-10-13T05:05:42;24.65;;;10.82;;
65558;SDS011;52203;51.998;5.140;2022-10-13T05:08:07;24.20;;;11.38;;
65558;SDS011;52203;51.998;5.140;2022-10-13T05:10:33;26.35;;;10.43;;
65558;SDS011;52203;51.998;5.140;2022-10-13T05:12:59;17.45;;;10.32;;
65558;SDS011;52203;51.998;5.140;2022-10-13T05:15:24;19.92;;;10.32;;
65558;SDS011;52203;51.998;5.140;2022-10-13T05:17:50;18.45;;;10.05;;
65558;SDS011;52203;51.998;5.140;2022-10-13T05:20:16;18.42;;;9.55;;
65558;SDS011;52203;51.998;5.140;2022-10-13T05:22:42;21.23;;;10.93;;
65558;SDS011;52203;51.998;5.140;2022-10-13T05:25:08;19.27;;;10.20;;
65558;SDS011;52203;51.998;5.140;2022-10-13T05:27:34;17.88;;;9.32;;
65558;SDS011;52203;51.998;5.140;2022-10-13T05:29:59;22.67;;;10.43;;
65558;SDS011;52203;51.998;5.140;2022-10-13T05:32:25;21.05;;;10.02;;
65558;SDS011;52203;51.998;5.140;2022-10-13T05:34:50;18.23;;;9.68;;
65558;SDS011;52203;51.998;5.140;2022-10-13T05:37:16;20.40;;;11.07;;
65558;SDS011;52203;51.998;5.140;2022-10-13T05:39:42;17.23;;;9.10;;
65558;SDS011;52203;51.998;5.140;2022-10-13T05:42:09;15.27;;;9.63;;
65558;SDS011;52203;51.998;5.140;2022-10-13T05:44:35;21.10;;;10.38;;
65558;SDS011;52203;51.998;5.140;2022-10-13T05:47:01;22.30;;;10.63;;
65558;SDS011;52203;51.998;5.140;2022-10-13T05:49:27;30.67;;;12.00;;
65558;SDS011;52203;51.998;5.140;2022-10-13T05:51:57;20.85;;;10.43;;
65558;SDS011;52203;51.998;5.140;2022-10-13T05:54:32;17.20;;;9.35;;
65558;SDS011;52203;51.998;5.140;2022-10-13T05:57:03;20.50;;;10.52;;
65558;SDS011;52203;51.998;5.140;2022-10-13T06:02:06;21.02;;;9.38;;
65558;SDS011;52203;51.998;5.140;2022-10-13T06:04:35;17.10;;;9.43;;
65558;SDS011;52203;51.998;5.140;2022-10-13T06:07:04;19.13;;;9.45;;
65558;SDS011;52203;51.998;5.140;2022-10-13T06:09:31;19.92;;;10.30;;
65558;SDS011;52203;51.998;5.140;2022-10-13T06:12:02;19.88;;;10.75;;
65558;SDS011;52203;51.998;5.140;2022-10-13T06:14:31;22.08;;;10.40;;
65558;SDS011;52203;51.998;5.140;2022-10-13T06:16:57;20.40;;;9.88;;
65558;SDS011;52203;51.998;5.140;2022-10-13T06:19:23;26.35;;;10.30;;
65558;SDS011;52203;51.998;5.140;2022-10-13T06:21:49;20.98;;;11.07;;
65558;SDS011;52203;51.998;5.140;2022-10-13T06:24:15;22.42;;;10.32;;
65558;SDS011;52203;51.998;5.140;2022-10-13T06:26:40;20.88;;;9.95;;
65558;SDS011;52203;51.998;5.140;2022-10-13T06:29:06;22.10;;;10.90;;
65558;SDS011;52203;51.998;5.140;2022-10-13T06:31:32;18.35;;;10.27;;
65558;SDS011;52203;51.998;5.140;2022-10-13T06:33:58;20.48;;;10.15;;
65558;SDS011;52203;51.998;5.140;2022-10-13T06:36:24;23.63;;;10.07;;
65558;SDS011;52203;51.998;5.140;2022-10-13T06:38:50;20.88;;;10.65;;
65558;SDS011;52203;51.998;5.140;2022-10-13T06:41:15;22.40;;;10.93;;
65558;SDS011;52203;51.998;5.140;2022-10-13T06:43:41;19.17;;;10.75;;
65558;SDS011;52203;51.998;5.140;2022-10-13T06:46:07;24.20;;;11.65;;
65558;SDS011;52203;51.998;5.140;2022-10-13T06:48:33;25.40;;;12.57;;
65558;SDS011;52203;51.998;5.140;2022-10-13T06:51:06;22.80;;;11.70;;
65558;SDS011;52203;51.998;5.140;2022-10-13T06:53:33;21.73;;;11.00;;
65558;SDS011;52203;51.998;5.140;2022-10-13T06:55:59;26.73;;;12.68;;
65558;SDS011;52203;51.998;5.140;2022-10-13T06:58:26;22.40;;;10.75;;
65558;SDS011;52203;51.998;5.140;2022-10-13T07:00:52;33.20;;;13.27;;
65558;SDS011;52203;51.998;5.140;2022-10-13T07:03:18;22.83;;;12.00;;
65558;SDS011;52203;51.998;5.140;2022-10-13T07:05:44;28.48;;;11.32;;
65558;SDS011;52203;51.998;5.140;2022-10-13T07:08:09;23.70;;;12.05;;
65558;SDS011;52203;51.998;5.140;2022-10-13T07:10:38;27.42;;;13.00;;
65558;SDS011;52203;51.998;5.140;2022-10-13T07:13:04;24.13;;;12.88;;
65558;SDS011;52203;51.998;5.140;2022-10-13T07:15:30;24.40;;;13.27;;
65558;SDS011;52203;51.998;5.140;2022-10-13T07:17:55;29.35;;;13.00;;
65558;SDS011;52203;51.998;5.140;2022-10-13T07:20:22;25.27;;;12.70;;
65558;SDS011;52203;51.998;5.140;2022-10-13T07:22:48;26.92;;;14.05;;
65558;SDS011;52203;51.998;5.140;2022-10-13T07:25:14;23.10;;;12.55;;
65558;SDS011;52203;51.998;5.140;2022-10-13T07:27:40;28.35;;;12.80;;
65558;SDS011;52203;51.998;5.140;2022-10-13T07:30:07;23.58;;;12.43;;
65558;SDS011;52203;51.998;5.140;2022-10-13T07:32:33;24.17;;;13.23;;
65558;SDS011;52203;51.998;5.140;2022-10-13T07:34:59;26.17;;;13.23;;
65558;SDS011;52203;51.998;5.140;2022-10-13T07:37:25;28.42;;;14.88;;
65558;SDS011;52203;51.998;5.140;2022-10-13T07:39:51;23.65;;;11.77;;
65558;SDS011;52203;51.998;5.140;2022-10-13T07:42:17;24.00;;;12.73;;
65558;SDS011;52203;51.998;5.140;2022-10-13T07:44:43;26.80;;;13.43;;
65558;SDS011;52203;51.998;5.140;2022-10-13T07:47:08;23.30;;;11.38;;
65558;SDS011;52203;51.998;5.140;2022-10-13T07:49:35;28.23;;;14.10;;
65558;SDS011;52203;51.998;5.140;2022-10-13T07:52:01;23.98;;;11.90;;
65558;SDS011;52203;51.998;5.140;2022-10-13T07:54:27;26.48;;;13.70;;
65558;SDS011;52203;51.998;5.140;2022-10-13T07:56:53;26.20;;;13.10;;
65558;SDS011;52203;51.998;5.140;2022-10-13T07:59:20;24.92;;;12.60;;
65558;SDS011;52203;51.998;5.140;2022-10-13T08:01:45;29.73;;;13.98;;
65558;SDS011;52203;51.998;5.140;2022-10-13T08:04:11;32.53;;;14.25;;
65558;SDS011;52203;51.998;5.140;2022-10-13T08:06:37;24.52;;;12.63;;
65558;SDS011;52203;51.998;5.140;2022-10-13T08:09:03;32.47;;;17.42;;
65558;SDS011;52203;51.998;5.140;2022-10-13T08:11:29;28.73;;;15.02;;
65558;SDS011;52203;51.998;5.140;2022-10-13T08:13:55;27.95;;;13.85;;
65558;SDS011;52203;51.998;5.140;2022-10-13T08:16:25;27.92;;;15.43;;
65558;SDS011;52203;51.998;5.140;2022-10-13T08:18:51;24.92;;;12.82;;
65558;SDS011;52203;51.998;5.140;2022-10-13T08:21:18;27.05;;;14.02;;
65558;SDS011;52203;51.998;5.140;2022-10-13T08:23:46;25.48;;;13.10;;
65558;SDS011;52203;51.998;5.140;2022-10-13T08:26:20;22.73;;;12.82;;
65558;SDS011;52203;51.998;5.140;2022-10-13T08:28:48;25.23;;;11.73;;
65558;SDS011;52203;51.998;5.140;2022-10-13T08:31:14;23.88;;;12.32;;
65558;SDS011;52203;51.998;5.140;2022-10-13T08:33:39;24.40;;;12.63;;
65558;SDS011;52203;51.998;5.140;2022-10-13T08:36:06;21.25;;;11.45;;
65558;SDS011;52203;51.998;5.140;2022-10-13T08:38:33;23.75;;;11.80;;
65558;SDS011;52203;51.998;5.140;2022-10-13T08:40:59;22.20;;;11.88;;
65558;SDS011;52203;51.998;5.140;2022-10-13T08:43:25;22.73;;;11.45;;
65558;SDS011;52203;51.998;5.140;2022-10-13T08:45:58;22.23;;;12.25;;
65558;SDS011;52203;51.998;5.140;2022-10-13T08:50:54;25.85;;;10.55;;
65558;SDS011;52203;51.998;5.140;2022-10-13T08:53:33;25.23;;;11.30;;
65558;SDS011;52203;51.998;5.140;2022-10-13T08:56:08;21.80;;;10.85;;
65558;SDS011;52203;51.998;5.140;2022-10-13T08:58:38;21.27;;;11.07;;
65558;SDS011;52203;51.998;5.140;2022-10-13T09:01:20;25.77;;;12.73;;
65558;SDS011;52203;51.998;5.140;2022-10-13T09:06:27;19.02;;;10.15;;
65558;SDS011;52203;51.998;5.140;2022-10-13T09:08:58;22.40;;;11.05;;
65558;SDS011;52203;51.998;5.140;2022-10-13T09:11:36;18.90;;;10.13;;
65558;SDS011;52203;51.998;5.140;2022-10-13T09:14:10;19.58;;;11.10;;
65558;SDS011;52203;51.998;5.140;2022-10-13T09:16:43;20.02;;;10.65;;
65558;SDS011;52203;51.998;5.140;2022-10-13T09:22:14;20.83;;;11.02;;
65558;SDS011;52203;51.998;5.140;2022-10-13T09:35:37;21.15;;;10.55;;
65558;SDS011;52203;51.998;5.140;2022-10-13T09:38:15;25.45;;;11.40;;
65558;SDS011;52203;51.998;5.140;2022-10-13T09:40:41;20.65;;;10.25;;
65558;SDS011;52203;51.998;5.140;2022-10-13T09:43:27;20.45;;;9.73;;
65558;SDS011;52203;51.998;5.140;2022-10-13T09:46:00;27.00;;;12.02;;
65558;SDS011;52203;51.998;5.140;2022-10-13T09:48:35;21.48;;;10.85;;
65558;SDS011;52203;51.998;5.140;2022-10-13T09:51:02;19.55;;;10.30;;
65558;SDS011;52203;51.998;5.140;2022-10-13T09:58:59;20.42;;;10.02;;
65558;SDS011;52203;51.998;5.140;2022-10-13T10:01:36;20.10;;;10.48;;
65558;SDS011;52203;51.998;5.140;2022-10-13T10:04:25;29.52;;;12.38;;
65558;SDS011;52203;51.998;5.140;2022-10-13T10:06:58;20.50;;;10.50;;
65558;SDS011;52203;51.998;5.140;2022-10-13T10:09:31;26.58;;;11.30;;
65558;SDS011;52203;51.998;5.140;2022-10-13T10:12:09;18.30;;;10.00;;
65558;SDS011;52203;51.998;5.140;2022-10-13T10:14:40;18.33;;;9.93;;
65558;SDS011;52203;51.998;5.140;2022-10-13T10:19:56;23.17;;;10.32;;
65558;SDS011;52203;51.998;5.140;2022-10-13T10:30:36;23.05;;;11.70;;
65558;SDS011;52203;51.998;5.140;2022-10-13T10:46:35;21.05;;;10.23;;
65558;SDS011;52203;51.998;5.140;2022-10-13T10:49:37;23.67;;;11.77;;
65558;SDS011;52203;51.998;5.140;2022-10-13T10:51:58;20.75;;;10.57;;
65558;SDS011;52203;51.998;5.140;2022-10-13T11:05:20;21.85;;;11.55;;
65558;SDS011;52203;51.998;5.140;2022-10-13T11:10:17;22.92;;;11.00;;
65558;SDS011;52203;51.998;5.140;2022-10-13T11:12:46;26.02;;;11.23;;
65558;SDS011;52203;51.998;5.140;2022-10-13T11:21:11;21.45;;;10.32;;
65558;SDS011;52203;51.998;5.140;2022-10-13T11:23:36;20.30;;;10.73;;
65558;SDS011;52203;51.998;5.140;2022-10-13T11:26:19;20.35;;;10.27;;
65558;SDS011;52203;51.998;5.140;2022-10-13T11:29:13;19.40;;;10.50;;
65558;SDS011;52203;51.998;5.140;2022-10-13T11:31:48;20.50;;;9.80;;
65558;SDS011;52203;51.998;5.140;2022-10-13T11:34:26;20.85;;;9.52;;
65558;SDS011;52203;51.998;5.140;2022-10-13T11:36:54;25.35;;;9.85;;
65558;SDS011;52203;51.998;5.140;2022-10-13T11:47:11;19.50;;;9.38;;
65558;SDS011;52203;51.998;5.140;2022-10-13T11:50:06;19.05;;;9.43;;
65558;SDS011;52203;51.998;5.140;2022-10-13T11:58:17;22.63;;;10.02;;
65558;SDS011;52203;51.998;5.140;2022-10-13T12:00:51;18.88;;;9.73;;
65558;SDS011;52203;51.998;5.140;2022-10-13T12:03:26;21.70;;;9.70;;
65558;SDS011;52203;51.998;5.140;2022-10-13T12:06:22;17.35;;;9.13;;
65558;SDS011;52203;51.998;5.140;2022-10-13T12:08:45;23.42;;;10.50;;
65558;SDS011;52203;51.998;5.140;2022-10-13T12:11:26;16.17;;;8.45;;
65558;SDS011;52203;51.998;5.140;2022-10-13T12:14:03;20.73;;;9.95;;
65558;SDS011;52203;51.998;5.140;2022-10-13T12:16:31;16.98;;;9.65;;
65558;SDS011;52203;51.998;5.140;2022-10-13T12:21:55;19.52;;;9.60;;
65558;SDS011;52203;51.998;5.140;2022-10-13T12:24:23;20.83;;;9.43;;
65558;SDS011;52203;51.998;5.140;2022-10-13T12:26:52;18.67;;;9.50;;
65558;SDS011;52203;51.998;5.140;2022-10-13T12:29:18;18.55;;;9.45;;
65558;SDS011;52203;51.998;5.140;2022-10-13T12:31:49;19.30;;;9.02;;
65558;SDS011;52203;51.998;5.140;2022-10-13T12:39:26;22.45;;;9.60;;
65558;SDS011;52203;51.998;5.140;2022-10-13T12:41:53;18.70;;;8.65;;
65558;SDS011;52203;51.998;5.140;2022-10-13T12:44:21;23.25;;;10.95;;
65558;SDS011;52203;51.998;5.140;2022-10-13T12:46:50;21.10;;;9.88;;
65558;SDS011;52203;51.998;5.140;2022-10-13T12:49:24;21.70;;;9.13;;
65558;SDS011;52203;51.998;5.140;2022-10-13T12:52:11;23.25;;;9.98;;
65558;SDS011;52203;51.998;5.140;2022-10-13T12:54:45;18.70;;;9.48;;
65558;SDS011;52203;51.998;5.140;2022-10-13T12:57:35;20.38;;;10.43;;
65558;SDS011;52203;51.998;5.140;2022-10-13T13:02:49;24.83;;;11.30;;
65558;SDS011;52203;51.998;5.140;2022-10-13T13:05:38;21.73;;;10.65;;
65558;SDS011;52203;51.998;5.140;2022-10-13T13:10:54;19.65;;;10.77;;
65558;SDS011;52203;51.998;5.140;2022-10-13T13:13:21;25.95;;;10.90;;
65558;SDS011;52203;51.998;5.140;2022-10-13T13:15:47;22.35;;;10.95;;
65558;SDS011;52203;51.998;5.140;2022-10-13T13:20:53;19.63;;;10.98;;
65558;SDS011;52203;51.998;5.140;2022-10-13T13:23:20;21.58;;;11.02;;
65558;SDS011;52203;51.998;5.140;2022-10-13T13:25:47;21.92;;;11.02;;
65558;SDS011;52203;51.998;5.140;2022-10-13T13:28:27;21.58;;;9.77;;
65558;SDS011;52203;51.998;5.140;2022-10-13T13:30:55;23.27;;;10.90;;
65558;SDS011;52203;51.998;5.140;2022-10-13T13:33:21;20.25;;;10.23;;
65558;SDS011;52203;51.998;5.140;2022-10-13T13:35:46;18.92;;;11.20;;
65558;SDS011;52203;51.998;5.140;2022-10-13T13:38:13;23.48;;;12.07;;
65558;SDS011;52203;51.998;5.140;2022-10-13T13:40:38;18.35;;;10.40;;
65558;SDS011;52203;51.998;5.140;2022-10-13T13:43:04;21.27;;;11.07;;
65558;SDS011;52203;51.998;5.140;2022-10-13T13:45:30;19.25;;;11.00;;
65558;SDS011;52203;51.998;5.140;2022-10-13T13:47:58;21.83;;;11.63;;
65558;SDS011;52203;51.998;5.140;2022-10-13T13:50:25;19.45;;;11.10;;
65558;SDS011;52203;51.998;5.140;2022-10-13T13:52:53;21.30;;;11.65;;
65558;SDS011;52203;51.998;5.140;2022-10-13T13:55:18;21.17;;;11.70;;
65558;SDS011;52203;51.998;5.140;2022-10-13T13:57:44;20.13;;;10.48;;
65558;SDS011;52203;51.998;5.140;2022-10-13T14:00:10;22.85;;;10.57;;
65558;SDS011;52203;51.998;5.140;2022-10-13T14:02:37;21.85;;;11.07;;
65558;SDS011;52203;51.998;5.140;2022-10-13T14:05:03;20.13;;;10.68;;
65558;SDS011;52203;51.998;5.140;2022-10-13T14:07:29;20.20;;;11.25;;
65558;SDS011;52203;51.998;5.140;2022-10-13T14:09:55;18.67;;;10.68;;
65558;SDS011;52203;51.998;5.140;2022-10-13T14:12:20;18.33;;;10.30;;
65558;SDS011;52203;51.998;5.140;2022-10-13T14:14:46;18.23;;;10.63;;
65558;SDS011;52203;51.998;5.140;2022-10-13T14:17:12;18.45;;;10.25;;
65558;SDS011;52203;51.998;5.140;2022-10-13T14:19:37;21.92;;;10.70;;
65558;SDS011;52203;51.998;5.140;2022-10-13T14:22:03;21.73;;;11.57;;
65558;SDS011;52203;51.998;5.140;2022-10-13T14:24:29;21.67;;;10.85;;
65558;SDS011;52203;51.998;5.140;2022-10-13T14:26:54;20.42;;;10.70;;
65558;SDS011;52203;51.998;5.140;2022-10-13T14:29:20;20.02;;;10.40;;
65558;SDS011;52203;51.998;5.140;2022-10-13T14:31:46;22.00;;;10.98;;
65558;SDS011;52203;51.998;5.140;2022-10-13T14:34:11;19.98;;;11.10;;
65558;SDS011;52203;51.998;5.140;2022-10-13T14:36:37;20.50;;;11.73;;
65558;SDS011;52203;51.998;5.140;2022-10-13T14:39:03;27.05;;;12.15;;
65558;SDS011;52203;51.998;5.140;2022-10-13T14:41:29;22.98;;;11.90;;
65558;SDS011;52203;51.998;5.140;2022-10-13T14:43:55;22.77;;;12.13;;
65558;SDS011;52203;51.998;5.140;2022-10-13T14:46:21;22.00;;;11.93;;
65558;SDS011;52203;51.998;5.140;2022-10-13T14:48:47;23.35;;;12.10;;
65558;SDS011;52203;51.998;5.140;2022-10-13T14:51:13;23.00;;;11.75;;
65558;SDS011;52203;51.998;5.140;2022-10-13T14:53:41;20.15;;;11.05;;
65558;SDS011;52203;51.998;5.140;2022-10-13T14:56:15;23.75;;;11.60;;
65558;SDS011;52203;51.998;5.140;2022-10-13T14:58:43;19.83;;;10.63;;
65558;SDS011;52203;51.998;5.140;2022-10-13T15:01:08;20.25;;;11.07;;
65558;SDS011;52203;51.998;5.140;2022-10-13T15:03:34;22.35;;;12.30;;
65558;SDS011;52203;51.998;5.140;2022-10-13T15:05:59;25.77;;;12.52;;
65558;SDS011;52203;51.998;5.140;2022-10-13T15:08:25;22.73;;;12.02;;
65558;SDS011;52203;51.998;5.140;2022-10-13T15:10:57;23.52;;;12.27;;
65558;SDS011;52203;51.998;5.140;2022-10-13T15:13:27;25.50;;;12.05;;
65558;SDS011;52203;51.998;5.140;2022-10-13T15:15:53;21.95;;;10.85;;
65558;SDS011;52203;51.998;5.140;2022-10-13T15:18:18;21.23;;;11.70;;
65558;SDS011;52203;51.998;5.140;2022-10-13T15:20:45;22.45;;;11.77;;
65558;SDS011;52203;51.998;5.140;2022-10-13T15:23:11;20.20;;;11.10;;
65558;SDS011;52203;51.998;5.140;2022-10-13T15:25:38;21.08;;;11.13;;
65558;SDS011;52203;51.998;5.140;2022-10-13T15:28:05;18.35;;;11.38;;
65558;SDS011;52203;51.998;5.140;2022-10-13T15:30:32;22.67;;;12.30;;
65558;SDS011;52203;51.998;5.140;2022-10-13T15:32:58;19.90;;;11.18;;
65558;SDS011;52203;51.998;5.140;2022-10-13T15:35:23;21.65;;;11.88;;
65558;SDS011;52203;51.998;5.140;2022-10-13T15:37:52;23.83;;;12.50;;
65558;SDS011;52203;51.998;5.140;2022-10-13T15:40:18;20.92;;;11.63;;
65558;SDS011;52203;51.998;5.140;2022-10-13T15:42:45;20.58;;;12.43;;
65558;SDS011;52203;51.998;5.140;2022-10-13T15:45:11;20.75;;;11.68;;
65558;SDS011;52203;51.998;5.140;2022-10-13T15:47:37;20.00;;;11.63;;
65558;SDS011;52203;51.998;5.140;2022-10-13T15:50:02;21.88;;;12.32;;
65558;SDS011;52203;51.998;5.140;2022-10-13T15:52:28;21.33;;;11.70;;
65558;SDS011;52203;51.998;5.140;2022-10-13T15:54:54;19.35;;;11.43;;
65558;SDS011;52203;51.998;5.140;2022-10-13T15:57:20;20.65;;;11.77;;
65558;SDS011;52203;51.998;5.140;2022-10-13T15:59:46;23.95;;;11.07;;
65558;SDS011;52203;51.998;5.140;2022-10-13T16:02:11;18.35;;;10.52;;
65558;SDS011;52203;51.998;5.140;2022-10-13T16:04:37;19.55;;;11.40;;
65558;SDS011;52203;51.998;5.140;2022-10-13T16:07:03;17.17;;;10.70;;
65558;SDS011;52203;51.998;5.140;2022-10-13T16:09:30;21.23;;;11.25;;
65558;SDS011;52203;51.998;5.140;2022-10-13T16:11:55;21.83;;;12.00;;
65558;SDS011;52203;51.998;5.140;2022-10-13T16:14:21;24.05;;;12.38;;
65558;SDS011;52203;51.998;5.140;2022-10-13T16:16:46;19.52;;;10.73;;
65558;SDS011;52203;51.998;5.140;2022-10-13T16:19:12;16.52;;;9.77;;
65558;SDS011;52203;51.998;5.140;2022-10-13T16:21:37;18.55;;;10.38;;
65558;SDS011;52203;51.998;5.140;2022-10-13T16:24:03;18.13;;;10.35;;
65558;SDS011;52203;51.998;5.140;2022-10-13T16:26:29;19.88;;;9.95;;
65558;SDS011;52203;51.998;5.140;2022-10-13T16:28:54;18.33;;;9.60;;
65558;SDS011;52203;51.998;5.140;2022-10-13T16:31:21;17.45;;;9.38;;
65558;SDS011;52203;51.998;5.140;2022-10-13T16:33:47;17.15;;;11.43;;
65558;SDS011;52203;51.998;5.140;2022-10-13T16:36:14;15.75;;;10.85;;
65558;SDS011;52203;51.998;5.140;2022-10-13T16:38:41;16.38;;;10.95;;
65558;SDS011;52203;51.998;5.140;2022-10-13T16:41:11;18.58;;;11.70;;
65558;SDS011;52203;51.998;5.140;2022-10-13T16:43:42;15.43;;;10.85;;
65558;SDS011;52203;51.998;5.140;2022-10-13T16:46:09;18.42;;;11.65;;